sensor_id;sensor_type;location;lat;lon;timestamp;pressure;altitude;pressure_sealevel;temperature;humidity
77216;BME280;66210;53.282;9.864;2024-01-10T00:02:23;102931.22;;;-5.53;89.82
77216;BME280;66210;53.282;9.864;2024-01-10T00:04:50;102935.25;;;-5.48;89.97
77216;BME280;66210;53.282;9.864;2024-01-10T00:07:17;102928.06;;;-5.52;89.88
77216;BME280;66210;53.282;9.864;2024-01-10T00:09:43;102909.84;;;-5.58;89.80
77216;BME280;66210;53.282;9.864;2024-01-10T00:12:12;102918.41;;;-5.56;90.18
77216;BME280;66210;53.282;9.864;2024-01-10T00:14:38;102910.06;;;-5.56;90.30
77216;BME280;66210;53.282;9.864;2024-01-10T00:17:05;102907.56;;;-5.56;90.46
77216;BME280;66210;53.282;9.864;2024-01-10T00:19:31;102907.38;;;-5.58;90.80
77216;BME280;66210;53.282;9.864;2024-01-10T00:21:58;102912.75;;;-5.55;90.47
77216;BME280;66210;53.282;9.864;2024-01-10T00:24:25;102899.25;;;-5.57;90.43
77216;BME280;66210;53.282;9.864;2024-01-10T00:26:51;102896.34;;;-5.60;90.49
77216;BME280;66210;53.282;9.864;2024-01-10T00:29:18;102880.13;;;-5.64;91.02
77216;BME280;66210;53.282;9.864;2024-01-10T00:31:44;102899.06;;;-5.64;90.66
77216;BME280;66210;53.282;9.864;2024-01-10T00:34:11;102879.47;;;-5.68;91.00
77216;BME280;66210;53.282;9.864;2024-01-10T00:36:37;102886.44;;;-5.66;91.31
77216;BME280;66210;53.282;9.864;2024-01-10T00:39:04;102881.72;;;-5.64;91.36
77216;BME280;66210;53.282;9.864;2024-01-10T00:41:31;102890.25;;;-5.56;91.65
77216;BME280;66210;53.282;9.864;2024-01-10T00:43:57;102888.22;;;-5.53;91.53
77216;BME280;66210;53.282;9.864;2024-01-10T00:46:24;102891.16;;;-5.56;91.33
77216;BME280;66210;53.282;9.864;2024-01-10T00:48:51;102882.81;;;-5.56;91.01
77216;BME280;66210;53.282;9.864;2024-01-10T00:51:17;102882.63;;;-5.58;91.01
77216;BME280;66210;53.282;9.864;2024-01-10T00:53:44;102891.59;;;-5.58;91.23
77216;BME280;66210;53.282;9.864;2024-01-10T00:56:10;102890.69;;;-5.53;91.29
77216;BME280;66210;53.282;9.864;2024-01-10T00:58:38;102882.34;;;-5.54;91.06
77216;BME280;66210;53.282;9.864;2024-01-10T01:01:04;102883.47;;;-5.52;91.21
77216;BME280;66210;53.282;9.864;2024-01-10T01:03:31;102878.50;;;-5.46;90.93
77216;BME280;66210;53.282;9.864;2024-01-10T01:05:58;102877.41;;;-5.48;90.88
77216;BME280;66210;53.282;9.864;2024-01-10T01:08:24;102870.84;;;-5.48;90.79
77216;BME280;66210;53.282;9.864;2024-01-10T01:10:51;102878.75;;;-5.45;91.14
77216;BME280;66210;53.282;9.864;2024-01-10T01:13:18;102876.28;;;-5.45;90.95
77216;BME280;66210;53.282;9.864;2024-01-10T01:15:44;102879.63;;;-5.44;90.65
77216;BME280;66210;53.282;9.864;2024-01-10T01:18:11;102883.91;;;-5.43;90.33
77216;BME280;66210;53.282;9.864;2024-01-10T01:20:39;102888.66;;;-5.45;90.39
77216;BME280;66210;53.282;9.864;2024-01-10T01:23:06;102886.38;;;-5.43;90.40
77216;BME280;66210;53.282;9.864;2024-01-10T01:25:33;102880.09;;;-5.47;90.17
77216;BME280;66210;53.282;9.864;2024-01-10T01:28:00;102875.63;;;-5.55;90.06
77216;BME280;66210;53.282;9.864;2024-01-10T01:30:26;102880.59;;;-5.66;89.81
77216;BME280;66210;53.282;9.864;2024-01-10T01:32:53;102868.69;;;-5.80;90.04
77216;BME280;66210;53.282;9.864;2024-01-10T01:35:20;102870.28;;;-5.86;90.39
77216;BME280;66210;53.282;9.864;2024-01-10T01:37:49;102878.16;;;-5.89;90.33
77216;BME280;66210;53.282;9.864;2024-01-10T01:40:18;102882.03;;;-5.96;90.91
77216;BME280;66210;53.282;9.864;2024-01-10T01:42:45;102881.56;;;-5.99;90.86
77216;BME280;66210;53.282;9.864;2024-01-10T01:45:12;102875.31;;;-6.03;90.82
77216;BME280;66210;53.282;9.864;2024-01-10T01:47:40;102884.50;;;-6.02;91.00
77216;BME280;66210;53.282;9.864;2024-01-10T01:50:07;102880.91;;;-6.04;91.33
77216;BME280;66210;53.282;9.864;2024-01-10T01:52:34;102880.94;;;-6.10;91.17
77216;BME280;66210;53.282;9.864;2024-01-10T01:55:05;102874.41;;;-6.20;91.07
77216;BME280;66210;53.282;9.864;2024-01-10T01:57:33;102881.81;;;-6.20;91.29
77216;BME280;66210;53.282;9.864;2024-01-10T02:00:01;102886.78;;;-6.20;91.03
77216;BME280;66210;53.282;9.864;2024-01-10T02:02:28;102881.81;;;-6.26;91.45
77216;BME280;66210;53.282;9.864;2024-01-10T02:04:57;102885.41;;;-6.30;91.52
77216;BME280;66210;53.282;9.864;2024-01-10T02:07:24;102882.28;;;-6.34;91.61
77216;BME280;66210;53.282;9.864;2024-01-10T02:09:52;102873.47;;;-6.43;91.78
77216;BME280;66210;53.282;9.864;2024-01-10T02:12:19;102880.22;;;-6.37;91.73
77216;BME280;66210;53.282;9.864;2024-01-10T02:14:46;102876.19;;;-6.36;91.64
77216;BME280;66210;53.282;9.864;2024-01-10T02:17:12;102867.19;;;-6.41;91.80
77216;BME280;66210;53.282;9.864;2024-01-10T02:19:39;102868.09;;;-6.41;91.52
77216;BME280;66210;53.282;9.864;2024-01-10T02:22:05;102867.63;;;-6.33;91.84
77216;BME280;66210;53.282;9.864;2024-01-10T02:24:32;102868.09;;;-6.30;91.35
77216;BME280;66210;53.282;9.864;2024-01-10T02:26:59;102865.16;;;-6.33;91.25
77216;BME280;66210;53.282;9.864;2024-01-10T02:29:26;102866.50;;;-6.35;91.09
77216;BME280;66210;53.282;9.864;2024-01-10T02:31:52;102858.41;;;-6.39;91.46
77216;BME280;66210;53.282;9.864;2024-01-10T02:34:19;102868.31;;;-6.34;91.46
77216;BME280;66210;53.282;9.864;2024-01-10T02:36:46;102860.22;;;-6.33;91.31
77216;BME280;66210;53.282;9.864;2024-01-10T02:39:12;102855.97;;;-6.34;91.49
77216;BME280;66210;53.282;9.864;2024-01-10T02:41:39;102856.88;;;-6.28;91.56
77216;BME280;66210;53.282;9.864;2024-01-10T02:44:05;102843.13;;;-6.25;91.34
77216;BME280;66210;53.282;9.864;2024-01-10T02:46:32;102850.56;;;-6.20;91.60
77216;BME280;66210;53.282;9.864;2024-01-10T02:48:58;102849.88;;;-6.13;91.48
77216;BME280;66210;53.282;9.864;2024-01-10T02:51:26;102849.41;;;-6.11;91.31
77216;BME280;66210;53.282;9.864;2024-01-10T02:53:53;102844.69;;;-6.09;91.24
77216;BME280;66210;53.282;9.864;2024-01-10T02:56:20;102844.47;;;-6.11;90.87
77216;BME280;66210;53.282;9.864;2024-01-10T02:58:46;102845.34;;;-6.10;90.62
77216;BME280;66210;53.282;9.864;2024-01-10T03:01:14;102844.25;;;-6.07;90.77
77216;BME280;66210;53.282;9.864;2024-01-10T03:03:40;102844.25;;;-6.07;90.57
77216;BME280;66210;53.282;9.864;2024-01-10T03:06:07;102844.00;;;-6.08;90.80
77216;BME280;66210;53.282;9.864;2024-01-10T03:08:33;102851.44;;;-6.08;90.54
77216;BME280;66210;53.282;9.864;2024-01-10T03:11:00;102832.34;;;-6.20;90.30
77216;BME280;66210;53.282;9.864;2024-01-10T03:13:27;102844.03;;;-6.19;90.23
77216;BME280;66210;53.282;9.864;2024-01-10T03:15:53;102842.47;;;-6.24;90.60
77216;BME280;66210;53.282;9.864;2024-01-10T03:18:20;102846.72;;;-6.23;90.66
77216;BME280;66210;53.282;9.864;2024-01-10T03:20:46;102842.00;;;-6.22;90.37
77216;BME280;66210;53.282;9.864;2024-01-10T03:23:13;102829.41;;;-6.23;90.67
77216;BME280;66210;53.282;9.864;2024-01-10T03:25:39;102833.66;;;-6.17;90.22
77216;BME280;66210;53.282;9.864;2024-01-10T03:28:06;102830.78;;;-6.14;90.13
77216;BME280;66210;53.282;9.864;2024-01-10T03:30:33;102832.31;;;-6.15;90.16
77216;BME280;66210;53.282;9.864;2024-01-10T03:32:59;102824.47;;;-6.18;89.75
77216;BME280;66210;53.282;9.864;2024-01-10T03:35:26;102829.63;;;-6.22;89.40
77216;BME280;66210;53.282;9.864;2024-01-10T03:37:53;102818.41;;;-6.31;89.45
77216;BME280;66210;53.282;9.864;2024-01-10T03:40:19;102819.06;;;-6.38;89.55
77216;BME280;66210;53.282;9.864;2024-01-10T03:42:46;102820.66;;;-6.44;89.59
77216;BME280;66210;53.282;9.864;2024-01-10T03:45:13;102816.84;;;-6.47;89.75
77216;BME280;66210;53.282;9.864;2024-01-10T03:47:47;102814.81;;;-6.50;89.17
77216;BME280;66210;53.282;9.864;2024-01-10T03:50:18;102811.66;;;-6.60;89.81
77216;BME280;66210;53.282;9.864;2024-01-10T03:52:46;102808.50;;;-6.71;89.27
77216;BME280;66210;53.282;9.864;2024-01-10T03:55:13;102826.03;;;-6.75;89.38
77216;BME280;66210;53.282;9.864;2024-01-10T03:57:39;102824.22;;;-6.87;89.45
77216;BME280;66210;53.282;9.864;2024-01-10T04:00:06;102828.44;;;-6.97;89.22
77216;BME280;66210;53.282;9.864;2024-01-10T04:02:33;102824.88;;;-6.99;89.50
77216;BME280;66210;53.282;9.864;2024-01-10T04:05:00;102828.44;;;-7.03;89.48
77216;BME280;66210;53.282;9.864;2024-01-10T04:07:27;102833.16;;;-7.04;89.85
77216;BME280;66210;53.282;9.864;2024-01-10T04:09:54;102841.03;;;-7.01;89.96
77216;BME280;66210;53.282;9.864;2024-01-10T04:12:21;102836.78;;;-6.97;90.13
77216;BME280;66210;53.282;9.864;2024-01-10T04:14:48;102841.28;;;-6.94;89.97
77216;BME280;66210;53.282;9.864;2024-01-10T04:17:14;102831.84;;;-6.97;89.79
77216;BME280;66210;53.282;9.864;2024-01-10T04:19:41;102832.06;;;-7.01;89.48
77216;BME280;66210;53.282;9.864;2024-01-10T04:22:08;102820.13;;;-7.09;89.12
77216;BME280;66210;53.282;9.864;2024-01-10T04:24:35;102835.41;;;-7.06;89.26
77216;BME280;66210;53.282;9.864;2024-01-10T04:27:01;102837.84;;;-7.12;89.35
77216;BME280;66210;53.282;9.864;2024-01-10T04:29:28;102830.00;;;-7.15;89.30
77216;BME280;66210;53.282;9.864;2024-01-10T04:31:54;102841.91;;;-7.12;89.50
77216;BME280;66210;53.282;9.864;2024-01-10T04:34:21;102839.88;;;-7.15;89.38
77216;BME280;66210;53.282;9.864;2024-01-10T04:36:49;102847.28;;;-7.15;89.17
77216;BME280;66210;53.282;9.864;2024-01-10T04:39:15;102841.66;;;-7.19;89.65
77216;BME280;66210;53.282;9.864;2024-01-10T04:41:42;102829.03;;;-7.26;89.26
77216;BME280;66210;53.282;9.864;2024-01-10T04:44:08;102829.03;;;-7.32;89.34
77216;BME280;66210;53.282;9.864;2024-01-10T04:46:35;102829.94;;;-7.32;89.55
77216;BME280;66210;53.282;9.864;2024-01-10T04:49:02;102839.16;;;-7.30;89.71
77216;BME280;66210;53.282;9.864;2024-01-10T04:51:28;102839.81;;;-7.32;89.64
77216;BME280;66210;53.282;9.864;2024-01-10T04:53:55;102823.59;;;-7.46;89.85
77216;BME280;66210;53.282;9.864;2024-01-10T04:56:22;102830.31;;;-7.45;89.65
77216;BME280;66210;53.282;9.864;2024-01-10T04:58:48;102831.41;;;-7.55;90.39
77216;BME280;66210;53.282;9.864;2024-01-10T05:01:15;102829.59;;;-7.61;90.68
77216;BME280;66210;53.282;9.864;2024-01-10T05:03:42;102827.31;;;-7.65;90.73
77216;BME280;66210;53.282;9.864;2024-01-10T05:06:09;102827.31;;;-7.71;90.91
77216;BME280;66210;53.282;9.864;2024-01-10T05:08:35;102824.59;;;-7.72;91.36
77216;BME280;66210;53.282;9.864;2024-01-10T05:11:02;102821.44;;;-7.71;90.92
77216;BME280;66210;53.282;9.864;2024-01-10T05:13:29;102814.69;;;-7.78;91.03
77216;BME280;66210;53.282;9.864;2024-01-10T05:15:55;102817.63;;;-7.75;91.11
77216;BME280;66210;53.282;9.864;2024-01-10T05:18:22;102810.94;;;-7.70;92.01
77216;BME280;66210;53.282;9.864;2024-01-10T05:20:48;102801.94;;;-7.70;91.24
77216;BME280;66210;53.282;9.864;2024-01-10T05:23:15;102809.38;;;-7.64;91.13
77216;BME280;66210;53.282;9.864;2024-01-10T05:25:41;102810.03;;;-7.65;91.14
77216;BME280;66210;53.282;9.864;2024-01-10T05:28:08;102819.25;;;-7.64;91.30
77216;BME280;66210;53.282;9.864;2024-01-10T05:30:34;102821.50;;;-7.66;90.79
77216;BME280;66210;53.282;9.864;2024-01-10T05:33:01;102816.31;;;-7.67;90.95
77216;BME280;66210;53.282;9.864;2024-01-10T05:35:28;102816.31;;;-7.67;90.85
77216;BME280;66210;53.282;9.864;2024-01-10T05:37:55;102813.19;;;-7.66;91.02
77216;BME280;66210;53.282;9.864;2024-01-10T05:40:23;102814.72;;;-7.67;90.75
77216;BME280;66210;53.282;9.864;2024-01-10T05:42:49;102819.22;;;-7.70;91.15
77216;BME280;66210;53.282;9.864;2024-01-10T05:45:16;102823.25;;;-7.70;90.83
77216;BME280;66210;53.282;9.864;2024-01-10T05:47:45;102819.84;;;-7.77;90.98
77216;BME280;66210;53.282;9.864;2024-01-10T05:50:11;102824.34;;;-7.80;90.48
77216;BME280;66210;53.282;9.864;2024-01-10T05:52:38;102829.94;;;-7.81;90.64
77216;BME280;66210;53.282;9.864;2024-01-10T05:55:05;102822.75;;;-7.79;90.78
77216;BME280;66210;53.282;9.864;2024-01-10T05:57:33;102828.16;;;-7.76;91.31
77216;BME280;66210;53.282;9.864;2024-01-10T06:00:00;102823.91;;;-7.77;90.90
77216;BME280;66210;53.282;9.864;2024-01-10T06:02:26;102827.03;;;-7.78;91.20
77216;BME280;66210;53.282;9.864;2024-01-10T06:04:53;102827.25;;;-7.82;90.70
77216;BME280;66210;53.282;9.864;2024-01-10T06:07:20;102824.28;;;-7.85;91.19
77216;BME280;66210;53.282;9.864;2024-01-10T06:09:47;102820.66;;;-7.93;91.11
77216;BME280;66210;53.282;9.864;2024-01-10T06:12:14;102820.66;;;-7.93;91.15
77216;BME280;66210;53.282;9.864;2024-01-10T06:14:40;102817.72;;;-7.96;91.24
77216;BME280;66210;53.282;9.864;2024-01-10T06:17:07;102823.78;;;-7.94;91.33
77216;BME280;66210;53.282;9.864;2024-01-10T06:19:34;102817.06;;;-7.95;91.64
77216;BME280;66210;53.282;9.864;2024-01-10T06:22:00;102813.72;;;-7.96;91.57
77216;BME280;66210;53.282;9.864;2024-01-10T06:24:27;102827.19;;;-7.93;91.49
77216;BME280;66210;53.282;9.864;2024-01-10T06:26:54;102824.47;;;-7.95;92.12
77216;BME280;66210;53.282;9.864;2024-01-10T06:29:21;102828.72;;;-7.94;91.58
77216;BME280;66210;53.282;9.864;2024-01-10T06:31:47;102826.75;;;-7.91;91.82
77216;BME280;66210;53.282;9.864;2024-01-10T06:34:15;102805.19;;;-7.92;92.59
77216;BME280;66210;53.282;9.864;2024-01-10T06:36:42;102817.78;;;-7.85;91.93
77216;BME280;66210;53.282;9.864;2024-01-10T06:39:10;102809.28;;;-7.87;92.11
77216;BME280;66210;53.282;9.864;2024-01-10T06:41:40;102814.22;;;-7.81;92.37
77216;BME280;66210;53.282;9.864;2024-01-10T06:44:06;102816.44;;;-7.83;93.09
77216;BME280;66210;53.282;9.864;2024-01-10T06:46:33;102812.84;;;-7.85;93.50
77216;BME280;66210;53.282;9.864;2024-01-10T06:49:00;102816.94;;;-7.80;93.24
77216;BME280;66210;53.282;9.864;2024-01-10T06:51:28;102816.75;;;-7.76;93.54
77216;BME280;66210;53.282;9.864;2024-01-10T06:53:55;102818.78;;;-7.73;94.15
77216;BME280;66210;53.282;9.864;2024-01-10T06:56:31;102821.44;;;-7.71;94.57
77216;BME280;66210;53.282;9.864;2024-01-10T06:58:58;102822.13;;;-7.67;94.29
77216;BME280;66210;53.282;9.864;2024-01-10T07:01:26;102830.03;;;-7.64;94.52
77216;BME280;66210;53.282;9.864;2024-01-10T07:03:53;102834.75;;;-7.60;95.13
77216;BME280;66210;53.282;9.864;2024-01-10T07:06:23;102817.91;;;-7.62;95.72
77216;BME280;66210;53.282;9.864;2024-01-10T07:08:51;102822.63;;;-7.58;95.49
77216;BME280;66210;53.282;9.864;2024-01-10T07:11:18;102838.38;;;-7.52;95.41
77216;BME280;66210;53.282;9.864;2024-01-10T07:13:46;102838.81;;;-7.49;94.82
77216;BME280;66210;53.282;9.864;2024-01-10T07:16:13;102834.59;;;-7.44;94.98
77216;BME280;66210;53.282;9.864;2024-01-10T07:18:43;102831.00;;;-7.46;95.11
77216;BME280;66210;53.282;9.864;2024-01-10T07:21:11;102830.31;;;-7.45;96.01
77216;BME280;66210;53.282;9.864;2024-01-10T07:23:38;102844.25;;;-7.40;95.43
77216;BME280;66210;53.282;9.864;2024-01-10T07:26:07;102848.34;;;-7.35;95.82
77216;BME280;66210;53.282;9.864;2024-01-10T07:28:33;102848.78;;;-7.32;95.13
77216;BME280;66210;53.282;9.864;2024-01-10T07:31:00;102848.34;;;-7.29;95.28
77216;BME280;66210;53.282;9.864;2024-01-10T07:33:29;102840.06;;;-7.24;95.29
77216;BME280;66210;53.282;9.864;2024-01-10T07:35:57;102832.22;;;-7.22;95.40
77216;BME280;66210;53.282;9.864;2024-01-10T07:38:24;102837.84;;;-7.17;95.40
77216;BME280;66210;53.282;9.864;2024-01-10T07:40:51;102825.72;;;-7.21;95.64
77216;BME280;66210;53.282;9.864;2024-01-10T07:43:18;102815.38;;;-7.19;95.16
77216;BME280;66210;53.282;9.864;2024-01-10T07:45:44;102819.66;;;-7.12;95.26
77216;BME280;66210;53.282;9.864;2024-01-10T07:48:11;102824.84;;;-7.11;95.50
77216;BME280;66210;53.282;9.864;2024-01-10T07:50:38;102823.47;;;-7.08;95.53
77216;BME280;66210;53.282;9.864;2024-01-10T07:53:05;102824.41;;;-7.08;95.88
77216;BME280;66210;53.282;9.864;2024-01-10T07:55:32;102817.88;;;-7.07;95.80
77216;BME280;66210;53.282;9.864;2024-01-10T07:57:58;102828.22;;;-7.04;96.37
77216;BME280;66210;53.282;9.864;2024-01-10T08:00:26;102822.81;;;-7.02;96.12
77216;BME280;66210;53.282;9.864;2024-01-10T08:02:52;102818.81;;;-7.01;96.21
77216;BME280;66210;53.282;9.864;2024-01-10T08:05:19;102823.75;;;-7.01;96.16
77216;BME280;66210;53.282;9.864;2024-01-10T08:07:48;102827.56;;;-6.98;96.02
77216;BME280;66210;53.282;9.864;2024-01-10T08:10:14;102825.13;;;-6.92;96.17
77216;BME280;66210;53.282;9.864;2024-01-10T08:12:42;102840.38;;;-6.89;95.81
77216;BME280;66210;53.282;9.864;2024-01-10T08:15:08;102835.19;;;-6.91;96.01
77216;BME280;66210;53.282;9.864;2024-01-10T08:17:37;102833.66;;;-6.90;96.03
77216;BME280;66210;53.282;9.864;2024-01-10T08:20:05;102830.25;;;-6.91;95.81
77216;BME280;66210;53.282;9.864;2024-01-10T08:22:33;102822.84;;;-6.91;96.13
77216;BME280;66210;53.282;9.864;2024-01-10T08:24:59;102826.44;;;-6.88;96.13
77216;BME280;66210;53.282;9.864;2024-01-10T08:27:26;102818.38;;;-6.87;95.89
77216;BME280;66210;53.282;9.864;2024-01-10T08:29:53;102820.16;;;-6.86;95.83
77216;BME280;66210;53.282;9.864;2024-01-10T08:32:20;102816.81;;;-6.87;95.79
77216;BME280;66210;53.282;9.864;2024-01-10T08:34:49;102828.72;;;-6.84;95.82
77216;BME280;66210;53.282;9.864;2024-01-10T08:37:17;102828.94;;;-6.83;96.02
77216;BME280;66210;53.282;9.864;2024-01-10T08:39:44;102821.97;;;-6.85;95.76
77216;BME280;66210;53.282;9.864;2024-01-10T08:42:10;102837.69;;;-6.79;95.67
77216;BME280;66210;53.282;9.864;2024-01-10T08:44:38;102835.22;;;-6.79;95.86
77216;BME280;66210;53.282;9.864;2024-01-10T08:47:06;102832.75;;;-6.79;95.89
77216;BME280;66210;53.282;9.864;2024-01-10T08:49:33;102829.84;;;-6.82;95.73
77216;BME280;66210;53.282;9.864;2024-01-10T08:52:00;102842.88;;;-6.78;95.79
77216;BME280;66210;53.282;9.864;2024-01-10T08:54:28;102845.09;;;-6.79;95.66
77216;BME280;66210;53.282;9.864;2024-01-10T08:56:55;102845.59;;;-6.76;95.66
77216;BME280;66210;53.282;9.864;2024-01-10T08:59:22;102848.06;;;-6.76;95.74
77216;BME280;66210;53.282;9.864;2024-01-10T09:01:49;102853.66;;;-6.77;95.45
77216;BME280;66210;53.282;9.864;2024-01-10T09:04:15;102850.97;;;-6.79;95.59
77216;BME280;66210;53.282;9.864;2024-01-10T09:06:42;102858.19;;;-6.75;95.62
77216;BME280;66210;53.282;9.864;2024-01-10T09:09:09;102857.25;;;-6.75;95.96
77216;BME280;66210;53.282;9.864;2024-01-10T09:11:36;102855.25;;;-6.72;95.68
77216;BME280;66210;53.282;9.864;2024-01-10T09:14:07;102852.56;;;-6.68;95.79
77216;BME280;66210;53.282;9.864;2024-01-10T09:16:37;102847.38;;;-6.64;95.86
77216;BME280;66210;53.282;9.864;2024-01-10T09:19:07;102840.88;;;-6.63;95.75
77216;BME280;66210;53.282;9.864;2024-01-10T09:21:37;102826.72;;;-6.70;95.76
77216;BME280;66210;53.282;9.864;2024-01-10T09:24:04;102833.00;;;-6.66;95.74
77216;BME280;66210;53.282;9.864;2024-01-10T09:26:52;102836.63;;;-6.59;95.81
77216;BME280;66210;53.282;9.864;2024-01-10T09:29:20;102845.38;;;-6.55;96.32
77216;BME280;66210;53.282;9.864;2024-01-10T09:31:46;102841.78;;;-6.52;96.11
77216;BME280;66210;53.282;9.864;2024-01-10T09:34:13;102844.69;;;-6.49;96.08
77216;BME280;66210;53.282;9.864;2024-01-10T09:36:40;102847.84;;;-6.44;96.21
77216;BME280;66210;53.282;9.864;2024-01-10T09:39:07;102822.00;;;-6.46;96.09
77216;BME280;66210;53.282;9.864;2024-01-10T09:41:46;102826.06;;;-6.41;95.70
77216;BME280;66210;53.282;9.864;2024-01-10T09:44:15;102824.72;;;-6.39;95.66
77216;BME280;66210;53.282;9.864;2024-01-10T09:46:52;102831.66;;;-6.31;95.80
77216;BME280;66210;53.282;9.864;2024-01-10T09:49:20;102828.53;;;-6.30;95.89
77216;BME280;66210;53.282;9.864;2024-01-10T09:51:53;102826.72;;;-6.31;95.71
77216;BME280;66210;53.282;9.864;2024-01-10T09:54:25;102821.56;;;-6.32;95.76
77216;BME280;66210;53.282;9.864;2024-01-10T09:56:53;102814.81;;;-6.39;95.57
77216;BME280;66210;53.282;9.864;2024-01-10T09:59:20;102819.50;;;-6.35;95.69
77216;BME280;66210;53.282;9.864;2024-01-10T10:01:47;102813.03;;;-6.34;95.84
77216;BME280;66210;53.282;9.864;2024-01-10T10:04:16;102804.69;;;-6.35;96.13
77216;BME280;66210;53.282;9.864;2024-01-10T10:06:44;102820.44;;;-6.23;96.17
77216;BME280;66210;53.282;9.864;2024-01-10T10:09:13;102814.34;;;-6.19;96.43
77216;BME280;66210;53.282;9.864;2024-01-10T10:11:40;102817.03;;;-6.12;96.06
77216;BME280;66210;53.282;9.864;2024-01-10T10:14:14;102813.44;;;-6.09;95.69
77216;BME280;66210;53.282;9.864;2024-01-10T10:16:42;102796.34;;;-6.13;95.84
77216;BME280;66210;53.282;9.864;2024-01-10T10:19:09;102802.41;;;-6.05;95.75
77216;BME280;66210;53.282;9.864;2024-01-10T10:21:42;102800.59;;;-6.00;95.84
77216;BME280;66210;53.282;9.864;2024-01-10T10:24:09;102802.78;;;-5.91;96.07
77216;BME280;66210;53.282;9.864;2024-01-10T10:26:41;102805.69;;;-5.82;96.46
77216;BME280;66210;53.282;9.864;2024-01-10T10:29:09;102786.53;;;-5.83;95.77
77216;BME280;66210;53.282;9.864;2024-01-10T10:31:35;102782.53;;;-5.82;95.80
77216;BME280;66210;53.282;9.864;2024-01-10T10:34:02;102779.13;;;-5.77;95.50
77216;BME280;66210;53.282;9.864;2024-01-10T10:36:32;102756.19;;;-5.88;95.50
77216;BME280;66210;53.282;9.864;2024-01-10T10:39:00;102778.66;;;-5.75;95.53
77216;BME280;66210;53.282;9.864;2024-01-10T10:41:31;102774.16;;;-5.77;95.54
77216;BME280;66210;53.282;9.864;2024-01-10T10:43:58;102778.66;;;-5.75;95.51
77216;BME280;66210;53.282;9.864;2024-01-10T10:46:27;102781.56;;;-5.72;95.33
77216;BME280;66210;53.282;9.864;2024-01-10T10:48:56;102774.13;;;-5.72;95.68
77216;BME280;66210;53.282;9.864;2024-01-10T10:51:32;102778.38;;;-5.65;95.58
77216;BME280;66210;53.282;9.864;2024-01-10T10:54:00;102782.66;;;-5.64;94.87
77216;BME280;66210;53.282;9.864;2024-01-10T10:56:30;102784.25;;;-5.70;94.80
77216;BME280;66210;53.282;9.864;2024-01-10T10:59:00;102787.19;;;-5.67;94.60
77216;BME280;66210;53.282;9.864;2024-01-10T11:01:28;102782.03;;;-5.69;94.79
77216;BME280;66210;53.282;9.864;2024-01-10T11:03:55;102784.50;;;-5.69;94.63
77216;BME280;66210;53.282;9.864;2024-01-10T11:06:22;102790.97;;;-5.58;94.96
77216;BME280;66210;53.282;9.864;2024-01-10T11:09:05;102791.41;;;-5.55;95.15
77216;BME280;66210;53.282;9.864;2024-01-10T11:11:44;102798.56;;;-5.39;95.45
77216;BME280;66210;53.282;9.864;2024-01-10T11:14:43;102789.75;;;-5.37;95.10
77216;BME280;66210;53.282;9.864;2024-01-10T11:18:18;102800.09;;;-5.29;94.77
77216;BME280;66210;53.282;9.864;2024-01-10T11:20:34;102801.44;;;-5.31;94.14
77216;BME280;66210;53.282;9.864;2024-01-10T11:25:58;102792.25;;;-5.43;93.51
77216;BME280;66210;53.282;9.864;2024-01-10T11:28:25;102801.44;;;-5.36;93.26
77216;BME280;66210;53.282;9.864;2024-01-10T11:30:55;102804.59;;;-5.32;93.49
77216;BME280;66210;53.282;9.864;2024-01-10T11:33:34;102807.53;;;-5.29;93.55
77216;BME280;66210;53.282;9.864;2024-01-10T11:36:20;102800.03;;;-5.23;93.71
77216;BME280;66210;53.282;9.864;2024-01-10T11:41:23;102774.38;;;-5.29;94.00
77216;BME280;66210;53.282;9.864;2024-01-10T11:46:48;102772.75;;;-5.17;93.33
77216;BME280;66210;53.282;9.864;2024-01-10T11:49:17;102790.47;;;-5.03;93.11
77216;BME280;66210;53.282;9.864;2024-01-10T11:51:46;102777.84;;;-5.05;93.09
77216;BME280;66210;53.282;9.864;2024-01-10T11:54:38;102780.31;;;-4.99;92.79
77216;BME280;66210;53.282;9.864;2024-01-10T11:57:11;102779.81;;;-4.96;93.14
77216;BME280;66210;53.282;9.864;2024-01-10T11:59:43;102767.41;;;-4.91;92.63
77216;BME280;66210;53.282;9.864;2024-01-10T12:02:16;102765.84;;;-4.96;91.60
77216;BME280;66210;53.282;9.864;2024-01-10T12:04:44;102758.66;;;-5.00;91.29
77216;BME280;66210;53.282;9.864;2024-01-10T12:07:16;102743.19;;;-5.10;91.61
77216;BME280;66210;53.282;9.864;2024-01-10T12:09:45;102762.66;;;-4.89;91.75
77216;BME280;66210;53.282;9.864;2024-01-10T12:12:13;102762.63;;;-4.84;91.71
77216;BME280;66210;53.282;9.864;2024-01-10T12:14:40;102770.00;;;-4.78;91.36
77216;BME280;66210;53.282;9.864;2024-01-10T12:17:09;102751.13;;;-4.89;90.41
77216;BME280;66210;53.282;9.864;2024-01-10T12:19:36;102715.22;;;-5.04;90.68
77216;BME280;66210;53.282;9.864;2024-01-10T12:22:04;102752.94;;;-4.88;91.29
77216;BME280;66210;53.282;9.864;2024-01-10T12:24:42;102762.38;;;-4.79;91.69
77216;BME280;66210;53.282;9.864;2024-01-10T12:27:11;102754.47;;;-4.83;91.92
77216;BME280;66210;53.282;9.864;2024-01-10T12:29:38;102743.94;;;-4.87;92.13
77216;BME280;66210;53.282;9.864;2024-01-10T12:32:07;102735.19;;;-4.91;91.93
77216;BME280;66210;53.282;9.864;2024-01-10T12:34:39;102759.16;;;-4.73;92.17
77216;BME280;66210;53.282;9.864;2024-01-10T12:37:06;102752.59;;;-4.72;92.45
77216;BME280;66210;53.282;9.864;2024-01-10T12:39:33;102749.25;;;-4.73;91.34
77216;BME280;66210;53.282;9.864;2024-01-10T12:42:00;102758.47;;;-4.72;91.27
77216;BME280;66210;53.282;9.864;2024-01-10T12:44:29;102755.72;;;-4.68;91.76
77216;BME280;66210;53.282;9.864;2024-01-10T12:46:56;102739.75;;;-4.75;91.49
77216;BME280;66210;53.282;9.864;2024-01-10T12:49:23;102754.88;;;-4.74;91.25
77216;BME280;66210;53.282;9.864;2024-01-10T12:51:51;102747.19;;;-4.75;91.39
77216;BME280;66210;53.282;9.864;2024-01-10T12:54:18;102744.31;;;-4.78;91.36
77216;BME280;66210;53.282;9.864;2024-01-10T12:56:45;102736.72;;;-4.86;90.77
77216;BME280;66210;53.282;9.864;2024-01-10T12:59:12;102746.78;;;-4.78;90.28
77216;BME280;66210;53.282;9.864;2024-01-10T13:01:39;102733.34;;;-4.86;89.27
77216;BME280;66210;53.282;9.864;2024-01-10T13:04:06;102731.28;;;-4.83;89.75